Criccieth, United Kingdom
Current Conditions -  °F | °C
As of 2:50 PM on Thursday 18 Dec 2014 (Local Time) from EGOV Reporting Station
Haze Haze  
Wind Chill: 54°   Ceiling: 8000
Heat Index: 54°   Visibility: 6mi
Dew Point: 52°   Wind: 29mph
Humidity: 94%   Direction: 220°SW
Pressure: 29.59"   Gusts: NA
Location:  52.92°N, 4.23°W
Report Text: EGOV 181450Z 22025KT 9000 BR FEW009 OVC080 12/11 Q1002 BLU TEMPO 7000 SCT009 GRN
Loading
Personal Weather Stations






























Interactive Weather Map New forecast layout! Learn more

10-Day Weather Forecast

Advertisements
Track Severe Weather on mobile